Time;durP1;ratioP1;P1;durP2;ratioP2;P2;SDS_P1;SDS_P2;PMS_P1;PMS_P2;Temp;Humidity;BMP_temperature;BMP_pressure;BME280_temperature;BME280_humidity;BME280_pressure;Samples;Min_cycle;Max_cycle;Signal;HPM_P1;HPM_P2
2021/11/06 00:00:08;;;;;;;16.17;7.77;;;3.40;99.90;;;;;;5012100;28;20434;-56
2021/11/06 00:02:34;;;;;;;13.20;6.80;;;3.40;99.90;;;;;;5011558;28;20211;-56
2021/11/06 00:05:00;;;;;;;10.67;7.00;;;3.40;99.90;;;;;;5015614;28;20869;-57
2021/11/06 00:07:25;;;;;;;13.63;6.97;;;3.40;99.90;;;;;;5016345;28;20299;-56
2021/11/06 00:09:51;;;;;;;12.53;6.63;;;3.40;99.90;;;;;;5024230;28;20196;-56
2021/11/06 00:12:17;;;;;;;12.53;6.97;;;3.40;99.90;;;;;;5016111;28;20183;-57
2021/11/06 00:14:42;;;;;;;9.90;6.70;;;3.40;99.90;;;;;;5021683;28;20184;-56
2021/11/06 00:17:08;;;;;;;11.57;7.30;;;3.40;99.90;;;;;;5011744;28;20192;-56
2021/11/06 00:19:34;;;;;;;9.43;6.57;;;3.30;99.90;;;;;;5015139;28;20188;-55
2021/11/06 00:22:00;;;;;;;9.97;7.17;;;3.30;99.90;;;;;;5018307;28;20184;-56
2021/11/06 00:24:26;;;;;;;16.33;7.90;;;3.30;99.90;;;;;;5018529;28;20183;-56
2021/11/06 00:26:52;;;;;;;12.00;7.80;;;3.30;99.90;;;;;;5013211;28;20455;-58
2021/11/06 00:29:19;;;;;;;13.00;8.00;;;3.40;99.90;;;;;;5016397;28;20340;-57
2021/11/06 00:31:46;;;;;;;10.50;7.40;;;3.40;99.90;;;;;;5010007;28;20427;-58
2021/11/06 00:34:12;;;;;;;17.33;8.13;;;3.40;99.90;;;;;;5009985;28;20435;-55
2021/11/06 00:36:37;;;;;;;14.50;9.03;;;3.40;99.90;;;;;;5016684;28;20473;-59
2021/11/06 00:39:04;;;;;;;12.23;7.87;;;3.40;99.90;;;;;;5029840;28;20628;-58
2021/11/06 00:41:30;;;;;;;14.43;8.37;;;3.40;99.90;;;;;;5022571;28;20442;-55
2021/11/06 00:43:56;;;;;;;13.90;8.43;;;3.30;99.90;;;;;;5017214;28;20483;-57
2021/11/06 00:46:21;;;;;;;12.40;7.60;;;3.30;99.90;;;;;;5020499;28;20187;-56
2021/11/06 00:48:47;;;;;;;11.80;8.03;;;3.30;99.90;;;;;;5021050;28;20913;-59
2021/11/06 00:51:13;;;;;;;15.40;9.00;;;3.20;99.90;;;;;;5017631;28;20211;-56
2021/11/06 00:53:38;;;;;;;14.93;8.90;;;3.20;99.90;;;;;;5018110;28;20181;-57
2021/11/06 00:56:05;;;;;;;13.10;8.37;;;3.10;99.90;;;;;;5020702;28;20179;-58
2021/11/06 00:58:31;;;;;;;13.50;8.33;;;3.10;99.90;;;;;;5023584;28;20252;-57
2021/11/06 01:00:56;;;;;;;12.60;8.07;;;3.00;99.90;;;;;;5012136;28;20471;-56
2021/11/06 01:03:22;;;;;;;13.30;8.03;;;3.00;99.90;;;;;;5021939;28;20470;-59
2021/11/06 01:05:48;;;;;;;12.17;8.03;;;3.00;99.90;;;;;;5020335;28;20179;-57
2021/11/06 01:08:14;;;;;;;11.93;7.50;;;2.90;99.90;;;;;;5016764;28;20198;-58
2021/11/06 01:10:40;;;;;;;12.53;8.40;;;2.90;99.90;;;;;;5020252;28;20451;-57
2021/11/06 01:13:06;;;;;;;11.33;7.43;;;2.90;99.90;;;;;;5018663;28;20183;-58
2021/11/06 01:15:32;;;;;;;14.53;8.40;;;2.80;99.90;;;;;;5018108;28;20431;-58
2021/11/06 01:17:58;;;;;;;13.53;8.30;;;2.80;99.90;;;;;;5020502;28;20303;-58
2021/11/06 01:20:24;;;;;;;16.43;8.13;;;2.80;99.90;;;;;;5013624;28;20525;-59
2021/11/06 01:22:50;;;;;;;13.60;8.13;;;2.80;99.90;;;;;;5016289;28;20432;-58
2021/11/06 01:25:16;;;;;;;11.10;7.13;;;2.80;99.90;;;;;;5021394;28;20453;-58
2021/11/06 01:27:43;;;;;;;13.10;8.50;;;2.80;99.90;;;;;;5011777;28;20234;-58
2021/11/06 01:30:09;;;;;;;12.07;8.20;;;2.80;99.90;;;;;;5019942;28;20481;-58
2021/11/06 01:32:36;;;;;;;13.60;8.20;;;2.80;99.90;;;;;;5017450;28;20431;-58
2021/11/06 01:35:02;;;;;;;12.77;7.53;;;2.80;99.90;;;;;;5017860;28;20824;-59
2021/11/06 01:37:28;;;;;;;14.10;7.90;;;2.80;99.90;;;;;;5020133;28;20446;-58
2021/11/06 01:39:54;;;;;;;13.40;8.70;;;2.80;99.90;;;;;;5018290;28;20449;-57
2021/11/06 01:42:20;;;;;;;13.73;8.07;;;2.80;99.90;;;;;;5015601;28;20540;-58
2021/11/06 01:44:46;;;;;;;14.10;8.73;;;2.80;99.90;;;;;;5012873;28;20427;-58
2021/11/06 01:47:12;;;;;;;23.23;8.70;;;2.80;99.90;;;;;;5009994;28;20549;-58
2021/11/06 01:49:38;;;;;;;12.50;7.80;;;2.80;99.90;;;;;;5017245;28;20209;-58
2021/11/06 01:52:05;;;;;;;13.57;8.30;;;2.80;99.90;;;;;;5023608;28;20251;-58
2021/11/06 01:54:30;;;;;;;22.10;8.70;;;2.80;99.90;;;;;;5011173;28;20560;-57
2021/11/06 01:56:56;;;;;;;15.00;9.37;;;2.80;99.90;;;;;;5016852;28;20556;-57
2021/11/06 01:59:23;;;;;;;13.00;8.10;;;2.70;99.90;;;;;;5023588;28;20175;-56
2021/11/06 02:01:49;;;;;;;13.30;7.47;;;2.70;99.90;;;;;;5020421;28;20191;-58
2021/11/06 02:04:15;;;;;;;11.60;7.43;;;2.70;99.90;;;;;;5012530;28;20822;-57
2021/11/06 02:06:41;;;;;;;11.20;7.70;;;2.60;99.90;;;;;;5022806;28;20469;-57
2021/11/06 02:09:07;;;;;;;13.70;8.53;;;2.60;99.90;;;;;;5022729;28;20453;-57
2021/11/06 02:11:35;;;;;;;13.30;8.20;;;2.60;99.90;;;;;;5017478;28;20168;-57
2021/11/06 02:14:00;;;;;;;13.20;7.20;;;2.60;99.90;;;;;;5018991;28;20436;-57
2021/11/06 02:16:26;;;;;;;10.83;6.77;;;2.60;99.90;;;;;;5016758;28;20439;-57
2021/11/06 02:18:52;;;;;;;12.57;8.13;;;2.50;99.90;;;;;;5016799;28;20878;-57
2021/11/06 02:21:18;;;;;;;13.90;7.90;;;2.50;99.90;;;;;;5016595;28;20191;-58
2021/11/06 02:23:48;;;;;;;12.63;7.83;;;2.50;99.90;;;;;;5013552;28;20191;-58
2021/11/06 02:26:14;;;;;;;13.67;7.90;;;2.50;99.90;;;;;;5018275;28;20183;-58
2021/11/06 02:28:42;;;;;;;14.80;7.80;;;2.40;99.90;;;;;;5018660;28;20432;-58
2021/11/06 02:31:08;;;;;;;16.40;9.37;;;2.40;99.90;;;;;;5013771;28;20431;-58
2021/11/06 02:33:34;;;;;;;12.30;7.73;;;2.40;99.90;;;;;;5021228;28;20987;-58
2021/11/06 02:36:01;;;;;;;14.37;8.73;;;2.40;99.90;;;;;;5015946;28;20202;-58
2021/11/06 02:38:27;;;;;;;18.53;8.93;;;2.40;99.90;;;;;;5014919;28;20277;-58
2021/11/06 02:40:53;;;;;;;13.70;8.23;;;2.50;99.90;;;;;;5013797;28;20945;-60
2021/11/06 02:43:18;;;;;;;15.67;8.90;;;2.50;99.90;;;;;;5020433;28;20443;-59
2021/11/06 02:45:44;;;;;;;14.47;8.60;;;2.50;99.90;;;;;;5023442;28;20653;-59
2021/11/06 02:48:11;;;;;;;19.10;8.60;;;2.50;99.90;;;;;;5023154;28;20569;-56
2021/11/06 02:50:37;;;;;;;13.90;8.30;;;2.50;99.90;;;;;;5014934;28;20256;-58
2021/11/06 02:53:03;;;;;;;17.07;9.37;;;2.60;99.90;;;;;;5021676;28;20476;-59
2021/11/06 02:55:29;;;;;;;12.17;7.77;;;2.60;99.90;;;;;;5019904;28;20454;-58
2021/11/06 02:57:54;;;;;;;19.30;8.73;;;2.60;99.90;;;;;;5019601;28;20183;-58
2021/11/06 03:00:21;;;;;;;14.57;8.20;;;2.60;99.90;;;;;;5018371;28;20431;-56
2021/11/06 03:02:47;;;;;;;19.10;9.40;;;2.60;99.90;;;;;;5015786;28;20176;-55
2021/11/06 03:05:14;;;;;;;14.57;8.53;;;2.50;99.90;;;;;;5014623;28;20488;-55
2021/11/06 03:07:40;;;;;;;18.33;9.10;;;2.50;99.90;;;;;;5012144;28;20632;-56
2021/11/06 03:10:08;;;;;;;15.57;9.00;;;2.50;99.90;;;;;;5012049;28;20475;-56
2021/11/06 03:12:35;;;;;;;16.43;9.00;;;2.50;99.90;;;;;;5010969;28;20518;-56
2021/11/06 03:15:01;;;;;;;16.53;9.13;;;2.40;99.90;;;;;;5015557;28;21099;-57
2021/11/06 03:17:27;;;;;;;15.60;8.97;;;2.30;99.90;;;;;;5017819;28;20567;-57
2021/11/06 03:19:53;;;;;;;14.10;9.00;;;2.30;99.90;;;;;;5019228;28;20715;-55
2021/11/06 03:22:18;;;;;;;13.73;7.67;;;2.30;99.90;;;;;;5008770;28;20253;-56
2021/11/06 03:24:44;;;;;;;21.00;9.27;;;2.20;99.90;;;;;;5017405;28;20196;-56
2021/11/06 03:27:10;;;;;;;17.07;8.40;;;2.20;99.90;;;;;;5016901;28;20226;-56
2021/11/06 03:29:36;;;;;;;15.87;9.40;;;2.10;99.90;;;;;;5011963;28;20194;-56
2021/11/06 03:32:02;;;;;;;13.87;8.77;;;2.10;99.90;;;;;;5020577;28;20175;-58
2021/11/06 03:34:28;;;;;;;14.30;8.30;;;2.10;99.90;;;;;;5014196;28;20435;-58
2021/11/06 03:36:54;;;;;;;15.27;8.97;;;2.10;99.90;;;;;;5011659;28;20461;-56
2021/11/06 03:39:20;;;;;;;13.17;8.57;;;2.00;99.90;;;;;;5010593;28;20180;-56
2021/11/06 03:41:47;;;;;;;14.50;8.30;;;2.00;99.90;;;;;;5011628;28;20179;-56
2021/11/06 03:44:13;;;;;;;15.93;9.10;;;2.00;99.90;;;;;;5013418;28;20492;-58
2021/11/06 03:46:39;;;;;;;16.63;8.73;;;2.00;99.90;;;;;;5009698;28;20451;-56
2021/11/06 03:49:05;;;;;;;16.70;8.80;;;1.90;99.90;;;;;;5012752;28;20466;-57
2021/11/06 03:51:31;;;;;;;12.70;8.53;;;1.90;99.90;;;;;;5016055;28;20951;-57
2021/11/06 03:54:00;;;;;;;17.23;10.20;;;1.90;99.90;;;;;;5014478;28;20434;-56
2021/11/06 03:56:26;;;;;;;14.27;8.67;;;1.90;99.90;;;;;;5014554;28;20438;-57
2021/11/06 03:58:51;;;;;;;19.57;8.87;;;1.90;99.90;;;;;;5018232;28;20431;-57
2021/11/06 04:01:18;;;;;;;20.57;8.93;;;1.80;99.90;;;;;;5013246;28;20435;-56
2021/11/06 04:03:44;;;;;;;14.47;9.87;;;1.80;99.90;;;;;;5015262;28;21034;-57
2021/11/06 04:06:09;;;;;;;12.77;8.00;;;1.80;99.90;;;;;;5010311;28;20487;-56
2021/11/06 04:08:35;;;;;;;13.03;8.40;;;1.80;99.90;;;;;;5012968;28;20451;-55
2021/11/06 04:11:01;;;;;;;13.00;8.30;;;1.80;99.90;;;;;;5012248;28;20172;-55
2021/11/06 04:13:26;;;;;;;14.50;8.33;;;1.80;99.90;;;;;;5017333;28;20176;-58
2021/11/06 04:15:52;;;;;;;15.60;9.50;;;1.80;99.90;;;;;;5013601;28;20845;-56
2021/11/06 04:18:18;;;;;;;25.83;12.17;;;1.80;99.90;;;;;;5013767;28;20206;-55
2021/11/06 04:20:43;;;;;;;24.50;12.70;;;1.80;99.90;;;;;;5016063;28;20594;-55
2021/11/06 04:23:09;;;;;;;34.63;13.23;;;1.90;99.90;;;;;;5013101;28;20715;-55
2021/11/06 04:25:35;;;;;;;29.53;11.80;;;1.90;99.90;;;;;;5017722;28;20184;-55
2021/11/06 04:28:01;;;;;;;20.33;10.30;;;1.90;99.90;;;;;;5015986;28;20445;-56
2021/11/06 04:30:27;;;;;;;23.07;11.27;;;1.90;99.90;;;;;;5016621;28;20231;-57
2021/11/06 04:32:52;;;;;;;19.73;10.60;;;1.90;99.90;;;;;;5013557;28;20185;-56
2021/11/06 04:35:18;;;;;;;20.40;10.27;;;1.90;99.90;;;;;;5010594;28;20192;-55
2021/11/06 04:37:43;;;;;;;19.93;11.10;;;2.00;99.90;;;;;;5015341;28;20195;-56
2021/11/06 04:40:11;;;;;;;23.50;11.43;;;2.00;99.90;;;;;;5019385;28;20184;-55
2021/11/06 04:42:37;;;;;;;26.77;10.87;;;2.10;99.90;;;;;;5013803;28;20194;-56
2021/11/06 04:45:05;;;;;;;28.50;10.97;;;2.10;99.90;;;;;;5011616;28;20430;-58
2021/11/06 04:47:30;;;;;;;20.70;11.40;;;2.00;99.90;;;;;;5012840;28;20503;-57
2021/11/06 04:49:57;;;;;;;76.40;12.27;;;2.00;99.90;;;;;;5012554;28;20476;-57
2021/11/06 04:52:23;;;;;;;16.03;9.87;;;2.00;99.90;;;;;;5016868;28;20245;-57
2021/11/06 04:54:48;;;;;;;89.30;13.03;;;2.00;99.90;;;;;;5013433;28;20939;-57
2021/11/06 04:57:14;;;;;;;92.37;12.83;;;2.10;99.90;;;;;;5007627;28;20293;-54
2021/11/06 04:59:40;;;;;;;22.50;11.00;;;2.00;99.90;;;;;;5012967;28;20297;-56
2021/11/06 05:02:07;;;;;;;97.10;13.70;;;2.00;99.90;;;;;;5009422;28;20453;-59
2021/11/06 05:04:33;;;;;;;69.23;13.60;;;2.00;99.90;;;;;;5010377;28;20179;-58
2021/11/06 05:06:59;;;;;;;46.13;11.47;;;2.00;99.90;;;;;;5010810;28;20490;-57
2021/11/06 05:09:25;;;;;;;25.80;11.20;;;2.00;99.90;;;;;;5016046;28;20958;-55
2021/11/06 05:11:51;;;;;;;33.83;10.53;;;2.00;99.90;;;;;;5034126;22;20235;-53
2021/11/06 05:14:17;;;;;;;115.43;12.90;;;2.00;99.90;;;;;;5014123;28;20438;-54
2021/11/06 05:16:43;;;;;;;34.80;9.90;;;2.00;99.90;;;;;;5017277;28;20176;-52
2021/11/06 05:19:09;;;;;;;161.73;14.97;;;2.00;99.90;;;;;;5000106;28;20447;-54
2021/11/06 05:21:38;;;;;;;91.17;11.17;;;2.00;99.90;;;;;;5006182;28;20274;-53
2021/11/06 05:24:05;;;;;;;115.50;13.50;;;1.90;99.90;;;;;;4997860;28;20183;-52
2021/11/06 05:26:31;;;;;;;232.07;15.77;;;1.80;99.90;;;;;;5004423;28;20426;-53
2021/11/06 05:28:57;;;;;;;48.33;8.97;;;1.70;99.90;;;;;;5005937;28;20455;-54
2021/11/06 05:31:23;;;;;;;205.97;15.43;;;1.70;99.90;;;;;;4998545;28;20831;-50
2021/11/06 05:33:49;;;;;;;155.70;14.77;;;1.70;99.90;;;;;;5007942;28;20517;-53
2021/11/06 05:36:14;;;;;;;58.40;10.80;;;1.70;99.90;;;;;;4997570;28;20223;-51
2021/11/06 05:38:40;;;;;;;113.70;12.63;;;1.70;99.90;;;;;;5000884;28;20169;-51
2021/11/06 05:41:06;;;;;;;138.37;13.83;;;1.70;99.90;;;;;;5005513;28;20202;-51
2021/11/06 05:43:32;;;;;;;77.07;11.97;;;1.70;99.90;;;;;;5000604;28;20191;-52
2021/11/06 05:45:58;;;;;;;35.63;10.47;;;1.70;99.90;;;;;;4996342;28;20634;-55
2021/11/06 05:48:26;;;;;;;84.77;11.13;;;1.70;99.90;;;;;;5000031;28;20665;-53
2021/11/06 05:50:52;;;;;;;96.53;13.20;;;1.70;99.90;;;;;;5002295;28;20505;-53
2021/11/06 05:53:17;;;;;;;116.93;12.93;;;1.70;99.90;;;;;;4997529;28;20955;-54
2021/11/06 05:55:43;;;;;;;164.67;14.57;;;1.70;99.90;;;;;;4999132;28;20187;-53
2021/11/06 05:58:09;;;;;;;47.13;9.93;;;1.70;99.90;;;;;;5000015;28;20303;-54
2021/11/06 06:00:35;;;;;;;106.23;12.30;;;1.60;99.90;;;;;;4998841;28;20665;-50
2021/11/06 06:03:04;;;;;;;48.40;11.37;;;1.60;99.90;;;;;;4997601;28;20719;-54
2021/11/06 06:05:29;;;;;;;76.77;11.40;;;1.60;99.90;;;;;;4992864;28;20180;-52
2021/11/06 06:07:55;;;;;;;67.33;11.20;;;1.60;99.90;;;;;;4996271;28;20454;-53
2021/11/06 06:10:21;;;;;;;142.13;13.43;;;1.60;99.90;;;;;;4997940;28;20216;-54
2021/11/06 06:12:51;;;;;;;96.43;11.73;;;1.60;99.90;;;;;;4992614;28;20237;-55
2021/11/06 06:15:17;;;;;;;167.73;12.50;;;1.60;99.90;;;;;;4996219;28;20665;-55
2021/11/06 06:17:43;;;;;;;28.40;9.30;;;1.60;99.90;;;;;;4997929;28;20462;-57
2021/11/06 06:20:10;;;;;;;57.27;11.03;;;1.50;99.90;;;;;;4995946;28;20920;-58
2021/11/06 06:22:37;;;;;;;52.87;9.53;;;1.60;99.90;;;;;;4994223;28;20194;-59
2021/11/06 06:25:04;;;;;;;50.73;9.60;;;1.60;99.90;;;;;;4997031;28;20439;-58
2021/11/06 06:27:30;;;;;;;39.37;9.70;;;1.60;99.90;;;;;;5012202;28;20546;-59
2021/11/06 06:29:56;;;;;;;74.20;11.57;;;1.60;99.90;;;;;;4998562;28;20503;-57
2021/11/06 06:32:22;;;;;;;55.90;11.30;;;1.60;99.90;;;;;;4997009;28;20489;-56
2021/11/06 06:34:47;;;;;;;64.47;11.77;;;1.60;99.90;;;;;;4996175;28;20174;-58
2021/11/06 06:37:13;;;;;;;41.97;10.07;;;1.60;99.90;;;;;;4998633;28;20616;-58
2021/11/06 06:39:39;;;;;;;34.13;10.40;;;1.60;99.90;;;;;;5001552;28;20602;-58
2021/11/06 06:42:05;;;;;;;82.83;10.60;;;1.50;99.90;;;;;;4999129;28;20204;-56
2021/11/06 06:44:30;;;;;;;71.37;10.77;;;1.50;99.90;;;;;;5000834;28;20269;-58
2021/11/06 06:46:56;;;;;;;42.37;9.30;;;1.60;99.90;;;;;;4998258;28;20669;-56
2021/11/06 06:49:22;;;;;;;28.50;8.30;;;1.50;99.90;;;;;;4995881;28;20357;-57
2021/11/06 06:51:47;;;;;;;64.23;9.87;;;1.60;99.90;;;;;;4999955;28;20550;-57
2021/11/06 06:54:13;;;;;;;27.63;10.43;;;1.60;99.90;;;;;;5005117;28;20273;-59
2021/11/06 06:56:39;;;;;;;137.10;11.97;;;1.60;99.90;;;;;;5005610;28;20182;-59
2021/11/06 06:59:05;;;;;;;75.63;9.90;;;1.60;99.90;;;;;;5004572;28;20449;-59
2021/11/06 07:01:30;;;;;;;24.00;9.63;;;1.50;99.90;;;;;;5000205;28;20204;-54
2021/11/06 07:03:57;;;;;;;44.43;9.10;;;1.50;99.90;;;;;;5004290;28;20830;-55
2021/11/06 07:06:22;;;;;;;27.73;9.10;;;1.50;99.90;;;;;;5001622;28;20182;-57
2021/11/06 07:08:48;;;;;;;36.47;8.80;;;1.50;99.90;;;;;;5002526;28;20435;-55
2021/11/06 07:11:14;;;;;;;128.90;12.37;;;1.50;99.90;;;;;;5002818;28;20222;-57
2021/11/06 07:13:39;;;;;;;59.83;9.93;;;1.50;99.90;;;;;;5002755;28;20199;-59
2021/11/06 07:16:06;;;;;;;47.60;9.77;;;1.50;99.90;;;;;;5000270;28;20199;-57
2021/11/06 07:18:31;;;;;;;41.63;9.47;;;1.50;99.90;;;;;;5000803;28;20188;-57
2021/11/06 07:20:57;;;;;;;30.20;9.00;;;1.50;99.90;;;;;;5000420;28;20548;-57
2021/11/06 07:23:23;;;;;;;42.77;9.13;;;1.50;99.90;;;;;;5002128;28;20248;-58
2021/11/06 07:25:48;;;;;;;19.70;8.60;;;1.60;99.90;;;;;;5005031;28;20284;-59
2021/11/06 07:28:14;;;;;;;25.17;8.10;;;1.60;99.90;;;;;;5007251;28;20191;-59
2021/11/06 07:30:40;;;;;;;67.40;9.40;;;1.60;99.90;;;;;;5004415;28;20207;-60
2021/11/06 07:33:06;;;;;;;26.50;8.20;;;1.60;99.90;;;;;;5001657;28;20789;-60
2021/11/06 07:35:31;;;;;;;113.60;10.43;;;1.60;99.90;;;;;;5006038;28;20556;-58
2021/11/06 07:37:58;;;;;;;84.13;9.93;;;1.60;99.90;;;;;;5005925;28;20188;-59
2021/11/06 07:40:24;;;;;;;87.93;10.00;;;1.60;99.90;;;;;;5004346;28;20210;-58
2021/11/06 07:42:50;;;;;;;86.50;9.50;;;1.60;99.90;;;;;;5002157;28;20466;-57
2021/11/06 07:45:19;;;;;;;14.27;7.53;;;1.60;99.90;;;;;;5002630;28;20437;-58
2021/11/06 07:47:45;;;;;;;28.27;8.10;;;1.60;99.90;;;;;;5006758;28;20512;-58
2021/11/06 07:50:12;;;;;;;26.63;8.07;;;1.60;99.90;;;;;;5001971;28;20562;-58
2021/11/06 07:52:38;;;;;;;18.43;8.90;;;1.60;99.90;;;;;;5006024;28;20462;-58
2021/11/06 07:55:05;;;;;;;50.70;8.93;;;1.60;99.90;;;;;;5000177;28;20427;-57
2021/11/06 07:57:32;;;;;;;31.07;8.00;;;1.60;99.90;;;;;;4998512;28;20423;-59
2021/11/06 07:59:58;;;;;;;100.70;10.67;;;1.60;99.90;;;;;;5002395;28;20438;-58
2021/11/06 08:02:25;;;;;;;44.17;8.40;;;1.60;99.90;;;;;;5004653;28;20450;-58
2021/11/06 08:04:51;;;;;;;25.83;8.20;;;1.50;99.90;;;;;;5006584;28;20462;-59
2021/11/06 08:07:17;;;;;;;22.03;8.53;;;1.50;99.90;;;;;;5001016;28;21581;-60
2021/11/06 08:09:43;;;;;;;71.83;10.47;;;1.60;99.90;;;;;;5004523;28;20566;-59
2021/11/06 08:12:08;;;;;;;92.70;10.03;;;1.60;99.90;;;;;;5004980;28;20727;-59
2021/11/06 08:14:34;;;;;;;59.93;9.70;;;1.60;99.90;;;;;;5003510;28;20185;-59
2021/11/06 08:17:00;;;;;;;34.07;8.63;;;1.60;99.90;;;;;;4999739;28;20174;-60
2021/11/06 08:19:26;;;;;;;252.37;14.63;;;1.70;99.90;;;;;;5001977;28;20176;-58
2021/11/06 08:21:52;;;;;;;64.87;9.53;;;1.70;99.90;;;;;;5005604;28;20203;-59
2021/11/06 08:24:22;;;;;;;104.53;11.60;;;1.70;99.90;;;;;;5002789;28;20976;-60
2021/11/06 08:26:48;;;;;;;33.50;8.13;;;1.70;99.90;;;;;;5001640;28;20439;-57
2021/11/06 08:29:14;;;;;;;82.77;9.80;;;1.70;99.90;;;;;;5005078;28;20770;-60
2021/11/06 08:31:41;;;;;;;51.30;8.63;;;1.70;99.90;;;;;;5004492;28;20447;-59
2021/11/06 08:34:06;;;;;;;38.03;8.23;;;1.70;99.90;;;;;;5000083;28;20471;-59
2021/11/06 08:36:32;;;;;;;18.50;8.43;;;1.70;99.90;;;;;;5003868;28;20466;-59
2021/11/06 08:38:58;;;;;;;18.70;8.00;;;1.80;99.90;;;;;;4998096;28;20661;-59
2021/11/06 08:41:25;;;;;;;69.40;10.03;;;1.80;99.90;;;;;;5001842;28;20442;-56
2021/11/06 08:43:50;;;;;;;46.27;8.20;;;1.90;99.90;;;;;;5003875;28;20215;-59
2021/11/06 08:46:16;;;;;;;24.43;8.30;;;1.90;99.90;;;;;;5000403;28;20521;-59
2021/11/06 08:48:42;;;;;;;23.83;8.80;;;2.00;99.90;;;;;;5001718;28;20169;-60
2021/11/06 08:51:08;;;;;;;22.30;8.20;;;2.00;99.90;;;;;;5001284;28;20211;-61
2021/11/06 08:53:34;;;;;;;13.03;8.20;;;2.10;99.90;;;;;;5002921;28;20544;-58
2021/11/06 08:56:00;;;;;;;20.87;7.73;;;2.10;99.90;;;;;;5001693;28;20950;-59
2021/11/06 08:58:26;;;;;;;12.57;7.20;;;2.20;99.90;;;;;;5004310;28;20261;-59
2021/11/06 09:00:53;;;;;;;16.23;9.03;;;2.30;99.90;;;;;;4996453;28;20203;-59
2021/11/06 09:03:22;;;;;;;18.10;8.73;;;2.40;99.90;;;;;;4998476;28;20501;-59
2021/11/06 09:05:51;;;;;;;11.97;7.60;;;2.50;99.90;;;;;;4997623;28;20504;-58
2021/11/06 09:08:18;;;;;;;18.50;8.80;;;2.60;99.90;;;;;;5006048;28;20435;-57
2021/11/06 09:10:45;;;;;;;23.83;9.00;;;2.70;99.90;;;;;;5007958;28;21103;-60
2021/11/06 09:13:11;;;;;;;16.23;9.17;;;2.80;99.90;;;;;;5005531;28;21119;-53
2021/11/06 09:15:36;;;;;;;24.60;9.70;;;2.80;99.90;;;;;;5005063;28;20434;-54
2021/11/06 09:18:02;;;;;;;17.20;9.10;;;2.90;99.90;;;;;;5007909;28;20448;-52
2021/11/06 09:20:28;;;;;;;17.93;10.10;;;3.00;99.90;;;;;;5001519;28;20848;-58
2021/11/06 09:22:54;;;;;;;15.00;9.43;;;3.10;99.90;;;;;;5004463;28;20225;-52
2021/11/06 09:25:21;;;;;;;19.10;9.80;;;3.30;99.90;;;;;;5006169;28;20798;-58
2021/11/06 09:27:47;;;;;;;17.60;9.90;;;3.40;99.90;;;;;;5007153;28;20449;-60
2021/11/06 09:30:14;;;;;;;17.70;9.90;;;3.50;99.90;;;;;;5007231;28;21027;-60
2021/11/06 09:32:41;;;;;;;16.40;8.70;;;3.60;99.90;;;;;;5008605;28;20272;-58
2021/11/06 09:35:07;;;;;;;18.40;9.73;;;3.60;99.90;;;;;;5006826;28;20626;-60
2021/11/06 09:37:33;;;;;;;19.50;9.03;;;3.70;99.90;;;;;;5004277;28;20940;-59
2021/11/06 09:39:59;;;;;;;16.33;8.53;;;3.80;99.90;;;;;;5003159;28;20435;-58
2021/11/06 09:42:25;;;;;;;16.57;9.03;;;3.90;99.90;;;;;;5008517;28;20286;-58
2021/11/06 09:44:52;;;;;;;16.87;10.27;;;3.90;99.90;;;;;;5006585;28;20439;-56
2021/11/06 09:47:19;;;;;;;15.77;8.83;;;4.00;99.90;;;;;;5001077;28;20191;-60
2021/11/06 09:49:46;;;;;;;16.47;9.03;;;4.20;99.90;;;;;;5002229;28;20451;-59
2021/11/06 09:52:12;;;;;;;15.80;9.53;;;4.30;99.90;;;;;;5008143;28;20443;-60
2021/11/06 09:54:42;;;;;;;13.37;8.80;;;4.50;99.90;;;;;;5005775;28;20558;-60
2021/11/06 09:57:08;;;;;;;14.63;9.50;;;4.70;99.90;;;;;;5007129;28;20427;-63
2021/11/06 09:59:34;;;;;;;17.13;9.90;;;4.90;99.90;;;;;;5003440;28;20964;-63
2021/11/06 10:02:01;;;;;;;17.93;10.63;;;5.10;99.90;;;;;;5009009;28;20250;-61
2021/11/06 10:04:29;;;;;;;17.20;10.00;;;5.40;99.90;;;;;;5005247;28;20431;-59
2021/11/06 10:06:58;;;;;;;16.73;10.20;;;5.60;99.90;;;;;;5003133;28;20481;-65
2021/11/06 10:09:24;;;;;;;19.47;11.50;;;5.80;99.90;;;;;;5002126;28;21194;-58
2021/11/06 10:11:53;;;;;;;16.50;10.33;;;6.00;99.90;;;;;;5004492;28;20465;-60
2021/11/06 10:14:25;;;;;;;18.27;10.67;;;6.20;99.90;;;;;;5002258;28;20526;-60
2021/11/06 10:16:55;;;;;;;20.30;12.13;;;6.30;99.90;;;;;;5004129;28;20428;-59
2021/11/06 10:19:29;;;;;;;20.93;12.00;;;6.50;99.90;;;;;;5012353;28;20941;-57
2021/11/06 10:22:16;;;;;;;17.67;11.30;;;6.60;99.90;;;;;;5007231;28;20442;-60
2021/11/06 10:24:41;;;;;;;17.43;11.17;;;6.90;99.90;;;;;;4999823;28;20431;-60
2021/11/06 10:27:20;;;;;;;17.00;10.57;;;7.10;99.90;;;;;;5001967;28;20491;-57
2021/11/06 10:30:09;;;;;;;19.20;10.70;;;7.30;99.90;;;;;;5002724;28;20188;-58
2021/11/06 10:32:36;;;;;;;13.23;8.80;;;7.50;99.90;;;;;;4999858;28;20443;-62
2021/11/06 10:35:13;;;;;;;12.17;8.70;;;7.80;99.90;;;;;;5003094;28;20446;-57
2021/11/06 10:37:40;;;;;;;13.00;8.57;;;8.00;99.90;;;;;;5005097;28;20442;-61
2021/11/06 10:40:09;;;;;;;11.97;7.67;;;8.20;99.90;;;;;;5002979;28;20453;-57
2021/11/06 10:42:46;;;;;;;11.33;7.10;;;8.40;99.90;;;;;;5001739;28;20459;-62
2021/11/06 10:45:14;;;;;;;11.00;7.40;;;8.60;99.90;;;;;;5005785;28;20742;-59
2021/11/06 10:47:53;;;;;;;12.73;7.10;;;8.70;99.90;;;;;;5000383;28;20466;-57
2021/11/06 10:50:43;;;;;;;12.50;7.17;;;8.90;99.90;;;;;;5004005;28;21028;-57
2021/11/06 10:53:09;;;;;;;10.00;6.20;;;9.20;99.40;;;;;;5002011;28;20944;-60
2021/11/06 10:55:45;;;;;;;10.73;7.40;;;9.30;98.60;;;;;;5002763;28;20442;-60
2021/11/06 10:58:26;;;;;;;12.60;7.67;;;9.50;98.00;;;;;;4997342;28;20427;-60
2021/11/06 11:00:55;;;;;;;8.93;6.30;;;9.70;97.40;;;;;;5000654;28;20463;-57
2021/11/06 11:03:32;;;;;;;9.77;6.17;;;9.90;94.90;;;;;;5004159;28;20466;-58
2021/11/06 11:06:00;;;;;;;7.80;5.30;;;10.00;91.90;;;;;;5002460;28;20438;-58
2021/11/06 11:08:30;;;;;;;8.60;5.87;;;10.10;88.10;;;;;;5007165;28;20485;-58
2021/11/06 11:11:06;;;;;;;7.10;5.30;;;10.30;86.40;;;;;;4996348;28;20503;-58
2021/11/06 11:13:31;;;;;;;8.23;4.70;;;10.50;79.30;;;;;;5014043;23;20489;-64
2021/11/06 11:16:11;;;;;;;4.60;3.83;;;10.50;74.30;;;;;;4999727;28;20431;-59
2021/11/06 11:18:38;;;;;;;4.17;3.60;;;10.50;68.10;;;;;;5001548;28;20549;-64
2021/11/06 11:21:29;;;;;;;4.30;3.80;;;10.60;70.60;;;;;;4997875;28;20431;-59
2021/11/06 11:24:05;;;;;;;4.27;3.70;;;10.80;67.10;;;;;;5002864;28;20447;-60
2021/11/06 11:26:49;;;;;;;5.60;3.90;;;11.00;64.90;;;;;;5001732;28;20980;-60
2021/11/06 11:29:25;;;;;;;3.60;3.27;;;11.30;64.80;;;;;;5003566;28;21013;-58
2021/11/06 11:31:52;;;;;;;4.43;3.53;;;11.60;61.70;;;;;;4996155;28;21109;-64
2021/11/06 11:34:18;;;;;;;3.10;2.73;;;11.70;58.20;;;;;;4992191;28;20593;-63
2021/11/06 11:36:46;;;;;;;5.90;3.67;;;11.70;56.80;;;;;;4999226;28;20469;-64
2021/11/06 11:39:14;;;;;;;3.90;3.50;;;11.70;56.90;;;;;;5004473;28;20195;-64
2021/11/06 11:41:46;;;;;;;3.50;3.20;;;11.60;57.60;;;;;;4997599;28;20431;-62
2021/11/06 11:44:31;;;;;;;4.50;3.70;;;12.10;57.30;;;;;;4999867;28;20555;-64
2021/11/06 11:47:06;;;;;;;4.57;3.73;;;12.90;54.60;;;;;;5000108;28;20807;-64
2021/11/06 11:49:34;;;;;;;4.20;3.43;;;13.40;52.50;;;;;;4992287;28;20460;-63
2021/11/06 11:52:25;;;;;;;4.50;4.10;;;13.80;51.90;;;;;;4998007;28;20435;-64
2021/11/06 11:55:28;;;;;;;4.20;3.70;;;14.10;50.90;;;;;;4997377;28;20462;-67
2021/11/06 11:58:18;;;;;;;3.93;3.53;;;14.40;50.90;;;;;;4994048;28;20514;-64
2021/11/06 12:00:47;;;;;;;4.30;3.90;;;14.60;48.70;;;;;;4999772;28;20486;-60
2021/11/06 12:03:26;;;;;;;4.40;3.87;;;14.70;48.60;;;;;;5000824;28;20466;-61
2021/11/06 12:05:52;;;;;;;4.13;3.40;;;14.90;47.80;;;;;;5000653;28;20434;-59
2021/11/06 12:08:20;;;;;;;5.20;4.10;;;15.00;46.60;;;;;;5000194;28;20439;-61
2021/11/06 12:10:55;;;;;;;4.50;4.10;;;15.30;47.00;;;;;;5000114;28;20685;-62
2021/11/06 12:13:41;;;;;;;4.83;3.60;;;15.80;46.30;;;;;;5000058;28;20513;-61
2021/11/06 12:16:12;;;;;;;4.20;3.50;;;16.20;44.80;;;;;;4996248;28;20449;-61
2021/11/06 12:18:40;;;;;;;4.00;3.23;;;16.50;43.60;;;;;;4998324;28;20899;-68
2021/11/06 12:21:19;;;;;;;2.97;2.67;;;16.70;42.60;;;;;;5012220;28;20435;-64
2021/11/06 12:23:52;;;;;;;3.03;2.60;;;16.60;42.00;;;;;;5002454;28;21059;-63
2021/11/06 12:26:25;;;;;;;3.20;2.90;;;15.80;42.10;;;;;;5001546;28;20784;-63
2021/11/06 12:29:11;;;;;;;3.60;2.93;;;14.70;42.80;;;;;;5000216;28;20808;-63
2021/11/06 12:31:44;;;;;;;2.80;2.57;;;13.60;44.40;;;;;;4982106;28;20451;-61
2021/11/06 12:34:34;;;;;;;3.23;2.87;;;12.70;45.30;;;;;;4996918;28;21118;-64
2021/11/06 12:37:03;;;;;;;3.80;3.20;;;12.00;46.70;;;;;;4997773;28;21476;-61
2021/11/06 12:39:55;;;;;;;3.50;3.20;;;11.40;47.40;;;;;;4990233;28;20450;-61
2021/11/06 12:42:26;;;;;;;4.00;3.07;;;11.00;48.70;;;;;;4992469;28;20909;-62
2021/11/06 12:45:10;;;;;;;5.23;2.93;;;10.70;49.10;;;;;;4992167;28;21339;-59